Time;durP1;ratioP1;P1;durP2;ratioP2;P2;SDS_P1;SDS_P2;PMS_P1;PMS_P2;Temp;Humidity;BMP_temperature;BMP_pressure;BME280_temperature;BME280_humidity;BME280_pressure;Samples;Min_cycle;Max_cycle;Signal;HPM_P1;HPM_P2
2021/07/20 00:00:55;;;;;;;23.23;10.90;;;;;;;;;;5071380;28;20027;-88
2021/07/20 00:03:20;;;;;;;22.13;10.75;;;;;;;;;;5052338;28;20082;-87
2021/07/20 00:05:46;;;;;;;20.33;11.25;;;;;;;;;;5054378;28;20028;-88
2021/07/20 00:08:11;;;;;;;23.13;10.88;;;;;;;;;;5086998;28;20110;-88
2021/07/20 00:10:40;;;;;;;19.55;9.30;;;;;;;;;;5086801;28;20586;-88
2021/07/20 00:13:05;;;;;;;24.90;11.65;;;;;;;;;;5053424;28;20141;-88
2021/07/20 00:15:31;;;;;;;21.02;10.75;;;;;;;;;;5053278;28;20447;-88
2021/07/20 00:17:58;;;;;;;21.95;10.32;;;;;;;;;;5053354;28;20401;-88
2021/07/20 00:20:24;;;;;;;21.00;11.43;;;;;;;;;;5086431;28;20059;-89
2021/07/20 00:22:50;;;;;;;20.17;10.27;;;;;;;;;;5052932;28;20044;-88
2021/07/20 00:25:15;;;;;;;31.85;10.90;;;;;;;;;;5086512;28;20021;-88
2021/07/20 00:27:41;;;;;;;21.30;11.02;;;;;;;;;;5052733;28;20028;-88
2021/07/20 00:30:07;;;;;;;22.23;10.43;;;;;;;;;;5052222;28;20021;-88
2021/07/20 00:32:33;;;;;;;22.70;10.63;;;;;;;;;;5052727;28;20021;-88
2021/07/20 00:34:58;;;;;;;25.58;11.65;;;;;;;;;;5052975;28;20032;-88
2021/07/20 00:37:23;;;;;;;25.52;11.65;;;;;;;;;;5086063;28;20078;-88
2021/07/20 00:39:49;;;;;;;20.52;11.23;;;;;;;;;;5054032;28;20341;-88
2021/07/20 00:42:14;;;;;;;20.02;10.70;;;;;;;;;;5052661;28;20420;-88
2021/07/20 00:44:39;;;;;;;27.60;11.43;;;;;;;;;;5085444;28;20031;-88
2021/07/20 00:47:05;;;;;;;25.83;10.60;;;;;;;;;;5086054;28;20056;-88
2021/07/20 00:49:30;;;;;;;25.60;10.65;;;;;;;;;;5052540;28;20361;-88
2021/07/20 00:51:55;;;;;;;26.23;11.50;;;;;;;;;;5053750;28;20598;-88
2021/07/20 00:54:20;;;;;;;24.05;11.18;;;;;;;;;;5085853;28;20419;-88
2021/07/20 00:56:46;;;;;;;31.80;12.77;;;;;;;;;;5053501;28;20100;-88
2021/07/20 00:59:12;;;;;;;29.95;11.48;;;;;;;;;;5080736;28;20025;-88
2021/07/20 01:01:37;;;;;;;26.98;12.48;;;;;;;;;;5053528;28;20024;-87
2021/07/20 01:04:03;;;;;;;31.77;12.40;;;;;;;;;;5052299;28;20025;-88
2021/07/20 01:06:28;;;;;;;30.67;12.40;;;;;;;;;;5085448;28;20020;-88
2021/07/20 01:08:54;;;;;;;30.00;11.23;;;;;;;;;;5085902;28;20028;-88
2021/07/20 01:11:21;;;;;;;34.70;12.52;;;;;;;;;;5085375;28;20037;-88
2021/07/20 01:13:47;;;;;;;27.67;12.43;;;;;;;;;;5053509;28;20028;-88
2021/07/20 01:16:13;;;;;;;29.83;12.48;;;;;;;;;;5053251;28;20025;-88
2021/07/20 01:18:38;;;;;;;26.83;11.65;;;;;;;;;;5053204;28;20024;-87
2021/07/20 01:21:04;;;;;;;28.95;12.50;;;;;;;;;;5085333;28;20024;-88
2021/07/20 01:23:33;;;;;;;36.60;12.65;;;;;;;;;;5051770;28;20025;-87
2021/07/20 01:25:58;;;;;;;31.95;13.63;;;;;;;;;;5085180;28;20024;-88
2021/07/20 01:28:24;;;;;;;31.08;13.30;;;;;;;;;;5074347;28;20022;-87
2021/07/20 01:31:00;;;;;;;28.10;12.73;;;;;;;;;;5085337;28;20511;-88
2021/07/20 01:33:26;;;;;;;34.10;13.02;;;;;;;;;;5085471;28;20453;-87
2021/07/20 01:35:52;;;;;;;33.58;13.45;;;;;;;;;;5085120;28;20116;-88
2021/07/20 01:38:18;;;;;;;28.77;12.20;;;;;;;;;;5051675;28;20094;-87
2021/07/20 01:40:43;;;;;;;32.38;13.07;;;;;;;;;;5052712;28;20106;-88
2021/07/20 01:43:10;;;;;;;37.53;14.80;;;;;;;;;;5051409;28;20531;-88
2021/07/20 01:45:37;;;;;;;30.67;12.63;;;;;;;;;;5051219;28;20024;-88
2021/07/20 01:48:03;;;;;;;35.47;13.65;;;;;;;;;;5085052;28;20033;-88
2021/07/20 01:50:29;;;;;;;31.33;14.32;;;;;;;;;;5084536;28;20421;-87
2021/07/20 01:52:55;;;;;;;36.72;13.48;;;;;;;;;;5085055;28;20078;-88
2021/07/20 01:55:22;;;;;;;37.20;14.00;;;;;;;;;;5083227;28;20036;-88
2021/07/20 01:57:47;;;;;;;33.58;14.15;;;;;;;;;;5051468;28;20427;-88
2021/07/20 02:00:17;;;;;;;39.17;13.98;;;;;;;;;;5083296;28;20025;-88
2021/07/20 02:02:58;;;;;;;32.97;14.70;;;;;;;;;;5051436;28;20111;-88
2021/07/20 02:08:26;;;;;;;27.20;12.65;;;;;;;;;;5052812;28;20487;-88
2021/07/20 02:10:53;;;;;;;33.00;13.80;;;;;;;;;;5084643;28;20024;-88
2021/07/20 02:13:19;;;;;;;40.22;13.77;;;;;;;;;;5052301;28;20460;-88
2021/07/20 02:15:46;;;;;;;29.63;12.93;;;;;;;;;;5051146;28;20114;-87
2021/07/20 02:18:12;;;;;;;32.80;13.05;;;;;;;;;;5083628;28;20060;-88
2021/07/20 02:20:40;;;;;;;31.80;13.25;;;;;;;;;;5052396;28;20024;-88
2021/07/20 02:23:06;;;;;;;31.10;12.88;;;;;;;;;;5051046;28;20025;-88
2021/07/20 02:25:31;;;;;;;35.63;13.57;;;;;;;;;;5052582;28;20020;-88
2021/07/20 02:27:57;;;;;;;34.65;13.20;;;;;;;;;;5088945;28;20025;-88
2021/07/20 02:30:23;;;;;;;26.85;12.40;;;;;;;;;;5088496;28;20017;-88
2021/07/20 02:32:48;;;;;;;35.35;13.05;;;;;;;;;;5088689;28;20031;-88
2021/07/20 02:35:18;;;;;;;32.30;12.77;;;;;;;;;;5056193;28;20035;-88
2021/07/20 02:37:44;;;;;;;31.88;13.13;;;;;;;;;;5055696;28;20051;-88
2021/07/20 02:40:10;;;;;;;30.02;13.00;;;;;;;;;;5056321;28;20435;-88
2021/07/20 02:42:37;;;;;;;33.08;13.77;;;;;;;;;;5054899;28;20021;-87
2021/07/20 02:45:09;;;;;;;37.53;12.65;;;;;;;;;;5055363;28;20404;-88
2021/07/20 02:47:35;;;;;;;32.08;13.27;;;;;;;;;;5088221;28;20388;-88
2021/07/20 02:50:00;;;;;;;26.40;12.20;;;;;;;;;;5088530;28;20032;-88
2021/07/20 02:52:27;;;;;;;29.88;13.00;;;;;;;;;;5054576;28;20495;-87
2021/07/20 02:54:53;;;;;;;29.42;13.15;;;;;;;;;;5054730;28;20013;-87
2021/07/20 02:57:19;;;;;;;28.13;12.07;;;;;;;;;;5054536;28;20074;-87
2021/07/20 02:59:44;;;;;;;29.05;11.82;;;;;;;;;;5055975;28;20082;-88
2021/07/20 03:02:10;;;;;;;25.33;11.32;;;;;;;;;;5088118;28;20021;-87
2021/07/20 03:04:37;;;;;;;29.60;11.27;;;;;;;;;;5088084;28;20056;-87
2021/07/20 03:07:05;;;;;;;26.80;11.30;;;;;;;;;;5054753;28;20019;-87
2021/07/20 03:09:32;;;;;;;28.58;12.02;;;;;;;;;;5053932;28;20016;-88
2021/07/20 03:12:09;;;;;;;24.10;11.05;;;;;;;;;;5087563;28;20421;-88
2021/07/20 03:14:34;;;;;;;25.35;11.70;;;;;;;;;;5087901;28;20620;-87
2021/07/20 03:17:00;;;;;;;26.95;11.48;;;;;;;;;;5087703;28;20017;-88
2021/07/20 03:19:27;;;;;;;22.45;10.63;;;;;;;;;;5055521;28;20089;-87
2021/07/20 03:21:54;;;;;;;26.48;10.90;;;;;;;;;;5087384;28;20019;-87
2021/07/20 03:24:20;;;;;;;21.48;10.35;;;;;;;;;;5054232;28;20025;-88
2021/07/20 03:26:45;;;;;;;26.13;11.27;;;;;;;;;;5087333;28;20482;-87
2021/07/20 03:29:11;;;;;;;24.15;9.15;;;;;;;;;;5055235;28;20012;-88
2021/07/20 03:31:36;;;;;;;22.08;9.50;;;;;;;;;;5054191;28;20021;-87
2021/07/20 03:34:02;;;;;;;17.35;8.23;;;;;;;;;;5053265;28;20033;-87
2021/07/20 03:36:28;;;;;;;21.60;8.48;;;;;;;;;;5052408;28;20028;-87
2021/07/20 03:38:53;;;;;;;19.40;8.30;;;;;;;;;;5053348;28;20361;-88
2021/07/20 03:41:19;;;;;;;17.58;6.85;;;;;;;;;;5053755;28;20074;-88
2021/07/20 03:43:44;;;;;;;17.52;7.95;;;;;;;;;;5053596;28;20036;-88
2021/07/20 03:46:10;;;;;;;17.85;7.35;;;;;;;;;;5053465;28;20495;-88
2021/07/20 03:48:35;;;;;;;11.65;5.43;;;;;;;;;;5054743;28;20029;-88
2021/07/20 03:51:01;;;;;;;11.40;5.53;;;;;;;;;;5054463;28;20025;-88
2021/07/20 03:53:27;;;;;;;10.18;4.82;;;;;;;;;;5053298;28;20021;-87
2021/07/20 03:55:54;;;;;;;11.07;4.78;;;;;;;;;;5054455;28;20423;-87
2021/07/20 03:58:20;;;;;;;10.98;5.20;;;;;;;;;;5053633;28;20480;-87
2021/07/20 04:00:46;;;;;;;8.38;4.13;;;;;;;;;;5054642;28;20025;-87
2021/07/20 04:03:21;;;;;;;9.20;3.95;;;;;;;;;;5052670;28;20051;-87
2021/07/20 04:05:48;;;;;;;7.30;3.47;;;;;;;;;;5053197;28;20028;-87
2021/07/20 04:08:14;;;;;;;7.93;3.50;;;;;;;;;;5054591;28;20357;-87
2021/07/20 04:10:39;;;;;;;9.48;3.83;;;;;;;;;;5054338;28;20063;-88
2021/07/20 04:13:04;;;;;;;7.65;3.30;;;;;;;;;;5054596;28;20075;-87
2021/07/20 04:15:30;;;;;;;8.73;3.85;;;;;;;;;;5053096;28;20365;-87
2021/07/20 04:17:55;;;;;;;9.85;4.38;;;;;;;;;;5053087;28;20036;-87
2021/07/20 04:20:20;;;;;;;9.77;4.15;;;;;;;;;;5052793;28;20526;-87
2021/07/20 04:22:46;;;;;;;10.50;4.75;;;;;;;;;;5053214;28;20526;-87
2021/07/20 04:25:11;;;;;;;9.70;4.22;;;;;;;;;;5052673;28;20028;-87
2021/07/20 04:27:37;;;;;;;9.27;4.45;;;;;;;;;;5052452;28;20028;-88
2021/07/20 04:30:03;;;;;;;9.45;4.15;;;;;;;;;;5052687;28;20116;-87
2021/07/20 04:32:30;;;;;;;7.05;3.72;;;;;;;;;;5052950;28;20052;-87
2021/07/20 04:34:56;;;;;;;7.50;3.20;;;;;;;;;;5054070;28;20020;-87
2021/07/20 04:37:22;;;;;;;10.40;4.20;;;;;;;;;;5052507;28;20032;-88
2021/07/20 04:39:47;;;;;;;9.63;3.90;;;;;;;;;;5052659;28;20024;-88
2021/07/20 04:42:13;;;;;;;7.30;3.72;;;;;;;;;;5052242;28;20025;-87
2021/07/20 04:44:38;;;;;;;8.05;3.83;;;;;;;;;;5052848;28;20025;-88
2021/07/20 04:47:04;;;;;;;8.15;3.90;;;;;;;;;;5053584;28;20078;-86
2021/07/20 04:49:29;;;;;;;10.20;4.07;;;;;;;;;;5051833;28;20103;-87
2021/07/20 04:51:54;;;;;;;10.38;3.70;;;;;;;;;;5051792;28;20472;-88
2021/07/20 04:54:20;;;;;;;7.10;3.65;;;;;;;;;;5052481;28;20434;-87
2021/07/20 04:56:46;;;;;;;9.65;4.35;;;;;;;;;;5052523;28;20017;-88
2021/07/20 04:59:11;;;;;;;9.55;3.85;;;;;;;;;;5051270;28;20496;-87
2021/07/20 05:01:38;;;;;;;7.75;3.95;;;;;;;;;;5051979;28;20021;-88
2021/07/20 05:04:03;;;;;;;9.90;4.45;;;;;;;;;;5052117;28;20025;-87
2021/07/20 05:06:29;;;;;;;9.65;4.57;;;;;;;;;;5051910;28;20020;-87
2021/07/20 05:08:55;;;;;;;8.82;3.42;;;;;;;;;;5053321;28;20021;-87
2021/07/20 05:11:20;;;;;;;9.15;4.65;;;;;;;;;;5051868;28;20102;-86
2021/07/20 05:13:46;;;;;;;11.25;4.10;;;;;;;;;;5052160;28;20031;-87
2021/07/20 05:16:11;;;;;;;10.77;4.20;;;;;;;;;;5053208;28;20029;-88
2021/07/20 05:18:37;;;;;;;9.80;4.47;;;;;;;;;;5051988;28;20021;-88
2021/07/20 05:21:02;;;;;;;8.40;3.75;;;;;;;;;;5051686;28;20035;-88
2021/07/20 05:23:29;;;;;;;11.10;4.43;;;;;;;;;;5051118;28;20032;-88
2021/07/20 05:25:55;;;;;;;8.10;4.10;;;;;;;;;;5051481;28;20013;-88
2021/07/20 05:28:24;;;;;;;12.35;4.90;;;;;;;;;;5051729;28;20387;-87
2021/07/20 05:30:50;;;;;;;10.35;4.43;;;;;;;;;;5051824;28;20013;-88
2021/07/20 05:33:17;;;;;;;9.93;4.05;;;;;;;;;;5051703;28;20070;-87
2021/07/20 05:35:42;;;;;;;12.10;4.57;;;;;;;;;;5051131;28;20021;-88
2021/07/20 05:38:07;;;;;;;8.88;3.72;;;;;;;;;;5051620;28;20078;-88
2021/07/20 05:40:33;;;;;;;9.63;4.50;;;;;;;;;;5051454;28;20035;-88
2021/07/20 05:42:58;;;;;;;9.45;4.45;;;;;;;;;;5051591;28;20020;-89
2021/07/20 05:45:26;;;;;;;10.13;4.20;;;;;;;;;;5051135;28;20017;-87
2021/07/20 05:47:52;;;;;;;7.47;3.38;;;;;;;;;;5051167;28;20020;-88
2021/07/20 05:50:18;;;;;;;11.68;5.10;;;;;;;;;;5053191;28;20452;-87
2021/07/20 05:52:47;;;;;;;11.50;5.15;;;;;;;;;;5052923;28;20060;-87
2021/07/20 05:55:13;;;;;;;13.07;4.55;;;;;;;;;;5041199;28;20025;-87
2021/07/20 05:57:45;;;;;;;13.27;4.32;;;;;;;;;;5050336;28;20024;-88
2021/07/20 06:00:12;;;;;;;11.48;4.45;;;;;;;;;;5041306;28;20083;-88
2021/07/20 06:02:39;;;;;;;10.90;4.13;;;;;;;;;;5032537;28;20275;-88
2021/07/20 06:05:05;;;;;;;9.32;3.78;;;;;;;;;;5050678;28;20464;-88
2021/07/20 06:07:31;;;;;;;9.63;4.32;;;;;;;;;;5050986;28;20013;-88
2021/07/20 06:09:56;;;;;;;11.23;4.35;;;;;;;;;;5050642;28;20396;-88
2021/07/20 06:12:21;;;;;;;8.02;4.10;;;;;;;;;;5046974;28;20097;-89
2021/07/20 06:14:47;;;;;;;9.23;4.22;;;;;;;;;;5049780;28;20032;-89
2021/07/20 06:17:12;;;;;;;12.60;4.47;;;;;;;;;;5049214;28;20087;-88
2021/07/20 06:19:38;;;;;;;15.98;4.40;;;;;;;;;;5049440;28;20381;-88
2021/07/20 06:22:05;;;;;;;11.75;4.35;;;;;;;;;;5043519;28;20024;-87
2021/07/20 06:24:32;;;;;;;9.68;4.35;;;;;;;;;;5050331;28;20078;-88
2021/07/20 06:26:58;;;;;;;11.93;4.22;;;;;;;;;;5037549;28;20021;-88
2021/07/20 06:29:23;;;;;;;10.40;4.35;;;;;;;;;;5041476;28;20033;-88
2021/07/20 06:31:49;;;;;;;9.13;4.20;;;;;;;;;;5051738;28;20108;-88
2021/07/20 06:34:14;;;;;;;9.88;3.90;;;;;;;;;;5050114;28;20465;-88
2021/07/20 06:36:42;;;;;;;11.10;4.43;;;;;;;;;;5051445;28;20104;-88
2021/07/20 06:39:07;;;;;;;8.05;3.72;;;;;;;;;;5050584;28;20032;-89
2021/07/20 06:41:33;;;;;;;9.18;3.83;;;;;;;;;;5050805;28;20104;-88
2021/07/20 06:43:59;;;;;;;10.50;4.22;;;;;;;;;;5050614;28;20029;-88
2021/07/20 06:46:25;;;;;;;11.55;4.72;;;;;;;;;;5050527;28;20385;-88
2021/07/20 06:48:50;;;;;;;8.60;3.55;;;;;;;;;;5050082;28;20480;-88
2021/07/20 06:51:16;;;;;;;10.18;4.10;;;;;;;;;;5050709;28;20032;-88
2021/07/20 06:53:41;;;;;;;10.23;4.43;;;;;;;;;;5050962;28;20540;-88
2021/07/20 06:56:10;;;;;;;10.75;4.47;;;;;;;;;;5048348;28;20049;-88
2021/07/20 06:58:38;;;;;;;8.30;3.65;;;;;;;;;;5050417;28;20132;-88
2021/07/20 07:01:04;;;;;;;8.50;3.88;;;;;;;;;;5048459;28;20021;-88
2021/07/20 07:03:33;;;;;;;12.73;4.63;;;;;;;;;;5045200;28;20021;-87
2021/07/20 07:06:00;;;;;;;9.88;4.20;;;;;;;;;;5047890;28;20029;-88
2021/07/20 07:08:26;;;;;;;9.75;4.00;;;;;;;;;;5049787;28;20060;-89
2021/07/20 07:10:53;;;;;;;12.13;4.82;;;;;;;;;;5043839;28;20056;-88
2021/07/20 07:13:18;;;;;;;9.65;3.92;;;;;;;;;;5053330;28;20028;-88
2021/07/20 07:15:44;;;;;;;9.70;4.07;;;;;;;;;;5055234;28;20043;-88
2021/07/20 07:18:10;;;;;;;8.93;4.10;;;;;;;;;;5055121;28;20029;-88
2021/07/20 07:20:35;;;;;;;8.65;3.88;;;;;;;;;;5053229;28;20017;-88
2021/07/20 07:23:01;;;;;;;10.43;4.07;;;;;;;;;;5053763;28;20045;-88
2021/07/20 07:25:27;;;;;;;11.43;5.40;;;;;;;;;;5053697;28;20108;-88
2021/07/20 07:27:53;;;;;;;9.93;4.50;;;;;;;;;;5053689;28;20049;-88
2021/07/20 07:30:19;;;;;;;11.68;4.45;;;;;;;;;;5053678;28;20068;-88
2021/07/20 07:32:44;;;;;;;8.77;4.07;;;;;;;;;;5053749;28;20032;-88
2021/07/20 07:35:10;;;;;;;8.45;3.85;;;;;;;;;;5053168;28;20107;-88
2021/07/20 07:37:36;;;;;;;10.50;3.95;;;;;;;;;;5053118;28;20051;-89
2021/07/20 07:40:04;;;;;;;10.98;4.07;;;;;;;;;;5054867;28;20020;-88
2021/07/20 07:42:29;;;;;;;8.88;4.10;;;;;;;;;;5053210;28;20029;-88
2021/07/20 07:44:55;;;;;;;9.55;4.45;;;;;;;;;;5054858;28;20027;-89
2021/07/20 07:47:21;;;;;;;11.63;4.68;;;;;;;;;;5053339;28;20110;-87
2021/07/20 07:49:47;;;;;;;9.77;4.13;;;;;;;;;;5052774;28;20490;-89
2021/07/20 07:52:12;;;;;;;7.85;3.47;;;;;;;;;;5043752;28;20056;-88
2021/07/20 07:54:39;;;;;;;10.70;4.30;;;;;;;;;;5053354;28;20016;-88
2021/07/20 07:57:04;;;;;;;10.85;4.18;;;;;;;;;;5053088;28;20021;-89
2021/07/20 07:59:30;;;;;;;9.18;3.67;;;;;;;;;;5053124;28;20353;-88
2021/07/20 08:01:56;;;;;;;8.68;3.88;;;;;;;;;;5053211;28;20055;-89
2021/07/20 08:04:23;;;;;;;7.65;3.33;;;;;;;;;;5053074;28;20025;-89
2021/07/20 08:06:49;;;;;;;9.55;4.10;;;;;;;;;;5052616;28;20108;-89
2021/07/20 08:09:16;;;;;;;8.88;4.18;;;;;;;;;;5054165;28;20096;-89
2021/07/20 08:11:42;;;;;;;7.30;3.38;;;;;;;;;;5052654;28;20413;-88
2021/07/20 08:14:08;;;;;;;7.93;3.47;;;;;;;;;;5053039;28;20419;-89
2021/07/20 08:16:36;;;;;;;7.53;3.25;;;;;;;;;;5054244;28;20021;-89
2021/07/20 08:19:02;;;;;;;7.65;3.65;;;;;;;;;;5052735;28;20027;-89
2021/07/20 08:21:28;;;;;;;10.23;4.18;;;;;;;;;;5052587;28;20040;-89
2021/07/20 08:23:55;;;;;;;9.57;3.70;;;;;;;;;;5051761;28;20059;-89
2021/07/20 08:26:24;;;;;;;8.85;4.22;;;;;;;;;;5052632;28;20460;-88
2021/07/20 08:28:55;;;;;;;9.05;4.05;;;;;;;;;;5052282;28;20400;-88
2021/07/20 08:31:21;;;;;;;8.67;3.77;;;;;;;;;;5049024;28;20102;-88
2021/07/20 08:33:47;;;;;;;7.95;3.75;;;;;;;;;;5039097;28;20294;-88
2021/07/20 08:36:14;;;;;;;10.38;4.20;;;;;;;;;;5052545;28;20118;-89
2021/07/20 08:38:41;;;;;;;6.03;2.90;;;;;;;;;;5053429;28;20021;-85
2021/07/20 08:41:20;;;;;;;8.52;3.78;;;;;;;;;;5053460;28;20380;-84
2021/07/20 08:44:04;;;;;;;10.82;3.53;;;;;;;;;;5052459;28;20078;-85
2021/07/20 08:46:47;;;;;;;10.05;3.80;;;;;;;;;;5053646;28;20017;-85
2021/07/20 08:49:18;;;;;;;8.07;3.80;;;;;;;;;;5053253;28;20017;-85
2021/07/20 08:51:50;;;;;;;6.97;3.38;;;;;;;;;;5052087;28;20036;-85
2021/07/20 08:54:17;;;;;;;7.43;3.67;;;;;;;;;;5052617;28;20516;-85
2021/07/20 08:56:43;;;;;;;8.20;3.50;;;;;;;;;;5052011;28;20031;-85
2021/07/20 08:59:09;;;;;;;8.55;3.17;;;;;;;;;;5049822;28;20523;-85
2021/07/20 09:01:46;;;;;;;8.60;3.80;;;;;;;;;;5052356;28;20155;-85
2021/07/20 09:04:15;;;;;;;8.25;3.35;;;;;;;;;;5052197;28;20491;-85
2021/07/20 09:06:48;;;;;;;6.93;3.35;;;;;;;;;;5052239;28;20027;-85
2021/07/20 09:09:18;;;;;;;6.68;3.28;;;;;;;;;;5046502;28;20013;-85
2021/07/20 09:11:45;;;;;;;6.80;3.53;;;;;;;;;;5051914;28;20349;-85
2021/07/20 09:14:29;;;;;;;8.35;3.38;;;;;;;;;;5052028;28;20625;-85
2021/07/20 09:17:04;;;;;;;8.13;3.78;;;;;;;;;;5051838;28;20021;-85
2021/07/20 09:19:42;;;;;;;10.27;4.32;;;;;;;;;;5052053;28;20159;-85
2021/07/20 09:22:11;;;;;;;8.07;3.40;;;;;;;;;;5051145;28;20067;-85
2021/07/20 09:24:47;;;;;;;6.90;3.30;;;;;;;;;;5051495;28;20032;-85
2021/07/20 09:27:20;;;;;;;8.40;3.75;;;;;;;;;;5051902;28;20013;-85
2021/07/20 09:29:46;;;;;;;7.32;3.67;;;;;;;;;;5052179;28;20025;-85
2021/07/20 09:32:29;;;;;;;8.82;3.65;;;;;;;;;;5051059;28;20009;-85
2021/07/20 09:35:06;;;;;;;9.40;3.40;;;;;;;;;;5047253;28;20416;-84
2021/07/20 09:37:51;;;;;;;10.40;4.47;;;;;;;;;;5045132;28;20020;-85
2021/07/20 09:40:23;;;;;;;9.77;3.90;;;;;;;;;;5037643;28;20434;-85
2021/07/20 09:43:06;;;;;;;7.95;3.67;;;;;;;;;;5050072;28;20036;-84
2021/07/20 09:45:39;;;;;;;10.18;4.53;;;;;;;;;;5048608;28;20021;-84
2021/07/20 09:48:23;;;;;;;11.93;4.32;;;;;;;;;;5046543;28;20049;-85
2021/07/20 09:51:12;;;;;;;12.63;4.43;;;;;;;;;;5047260;28;20020;-84
2021/07/20 09:53:56;;;;;;;8.05;3.42;;;;;;;;;;5048095;28;20125;-84
2021/07/20 09:56:30;;;;;;;9.40;4.03;;;;;;;;;;5050623;28;20361;-84
2021/07/20 09:59:14;;;;;;;9.45;3.60;;;;;;;;;;5050803;28;20067;-85
2021/07/20 10:01:44;;;;;;;10.35;4.07;;;;;;;;;;5044206;28;20055;-84
2021/07/20 10:04:25;;;;;;;8.98;3.70;;;;;;;;;;5050197;28;20021;-85
2021/07/20 10:06:56;;;;;;;9.40;4.20;;;;;;;;;;5051849;28;20017;-84
2021/07/20 10:09:27;;;;;;;9.73;4.10;;;;;;;;;;5052317;28;20496;-85
2021/07/20 10:11:52;;;;;;;7.23;3.50;;;;;;;;;;5043670;28;20131;-85
2021/07/20 10:14:18;;;;;;;6.45;3.20;;;;;;;;;;5051106;28;20768;-84
2021/07/20 10:16:48;;;;;;;8.15;3.65;;;;;;;;;;5043320;28;20026;-85
2021/07/20 10:19:18;;;;;;;8.10;3.30;;;;;;;;;;5050479;28;20380;-85
2021/07/20 10:21:46;;;;;;;7.95;4.05;;;;;;;;;;5050947;28;20103;-85
2021/07/20 10:24:14;;;;;;;7.90;3.35;;;;;;;;;;5050846;28;20048;-84
2021/07/20 10:26:58;;;;;;;8.77;4.13;;;;;;;;;;5046724;28;20123;-85
2021/07/20 10:29:31;;;;;;;5.57;2.90;;;;;;;;;;5039913;28;20017;-85
2021/07/20 10:32:00;;;;;;;6.88;3.47;;;;;;;;;;5050706;28;20048;-85
2021/07/20 10:34:27;;;;;;;10.18;4.20;;;;;;;;;;5052077;28;20078;-85
2021/07/20 10:36:53;;;;;;;8.85;3.58;;;;;;;;;;5052019;28;20464;-84
2021/07/20 10:39:21;;;;;;;7.03;3.17;;;;;;;;;;5049767;28;20020;-85
2021/07/20 10:41:56;;;;;;;11.57;3.50;;;;;;;;;;5046531;28;20051;-85
2021/07/20 10:44:29;;;;;;;9.05;3.83;;;;;;;;;;5061371;28;20021;-85
2021/07/20 10:46:54;;;;;;;;;;;;;;;;;;5064605;28;20349;-85
2021/07/20 10:49:19;;;;;;;9.27;4.25;;;;;;;;;;5083129;28;20438;-85
2021/07/20 10:51:46;;;;;;;6.47;3.22;;;;;;;;;;5051240;28;20035;-84
2021/07/20 10:54:17;;;;;;;8.55;4.13;;;;;;;;;;5052364;28;20373;-85
2021/07/20 10:56:48;;;;;;;8.38;3.50;;;;;;;;;;5051211;28;21863;-85
2021/07/20 10:59:16;;;;;;;8.90;3.92;;;;;;;;;;5052439;28;20055;-84
2021/07/20 11:01:49;;;;;;;10.27;3.65;;;;;;;;;;5052445;28;20430;-84
2021/07/20 11:04:33;;;;;;;11.07;4.22;;;;;;;;;;5050166;28;20037;-85
2021/07/20 11:06:59;;;;;;;7.60;3.92;;;;;;;;;;5048216;28;20104;-84
2021/07/20 11:09:26;;;;;;;8.65;3.72;;;;;;;;;;5049190;28;20096;-85
2021/07/20 11:11:55;;;;;;;7.43;3.42;;;;;;;;;;5052538;28;20017;-85
2021/07/20 11:14:25;;;;;;;8.15;3.90;;;;;;;;;;5081898;28;20072;-84
2021/07/20 11:16:51;;;;;;;7.93;3.67;;;;;;;;;;5045555;28;20110;-84
2021/07/20 11:19:17;;;;;;;7.00;3.25;;;;;;;;;;5045509;28;20050;-85
2021/07/20 11:21:43;;;;;;;8.70;3.67;;;;;;;;;;5051461;28;20369;-85
2021/07/20 11:24:09;;;;;;;8.48;4.07;;;;;;;;;;5053984;28;20112;-85
2021/07/20 11:26:34;;;;;;;10.10;4.10;;;;;;;;;;5053317;28;20048;-85
2021/07/20 11:29:00;;;;;;;8.43;3.63;;;;;;;;;;5052981;28;20032;-85
2021/07/20 11:31:46;;;;;;;8.82;4.07;;;;;;;;;;5053236;28;20021;-85
2021/07/20 11:34:13;;;;;;;5.65;3.00;;;;;;;;;;5074566;28;20040;-85
2021/07/20 11:36:39;;;;;;;7.68;3.20;;;;;;;;;;5050944;28;20380;-85
2021/07/20 11:39:05;;;;;;;6.22;2.90;;;;;;;;;;5053414;28;20025;-85
2021/07/20 11:41:49;;;;;;;6.88;3.13;;;;;;;;;;5053512;28;20078;-85
2021/07/20 11:44:33;;;;;;;8.25;3.33;;;;;;;;;;5051216;28;20100;-85
2021/07/20 11:47:04;;;;;;;7.68;3.30;;;;;;;;;;5053163;28;20017;-85
2021/07/20 11:49:47;;;;;;;9.90;3.55;;;;;;;;;;5066176;28;20013;-85
2021/07/20 11:52:18;;;;;;;8.98;4.05;;;;;;;;;;5049078;28;20472;-85
2021/07/20 11:55:03;;;;;;;6.07;2.67;;;;;;;;;;5051779;28;20020;-85
2021/07/20 11:57:29;;;;;;;8.15;3.45;;;;;;;;;;5039741;28;20049;-84
2021/07/20 12:00:00;;;;;;;6.40;2.80;;;;;;;;;;5052988;28;21489;-85
2021/07/20 12:02:47;;;;;;;6.40;3.40;;;;;;;;;;5062163;28;21975;-85
2021/07/20 12:05:15;;;;;;;7.18;3.30;;;;;;;;;;5052616;28;20040;-85
2021/07/20 12:07:44;;;;;;;7.97;3.67;;;;;;;;;;5053372;28;20373;-85
2021/07/20 12:10:10;;;;;;;7.10;3.53;;;;;;;;;;5051535;28;20021;-85
2021/07/20 12:12:56;;;;;;;7.60;3.58;;;;;;;;;;5052670;28;20031;-85
2021/07/20 12:15:23;;;;;;;6.90;2.78;;;;;;;;;;5054376;28;20052;-85
2021/07/20 12:17:49;;;;;;;8.38;3.60;;;;;;;;;;5052682;28;20499;-85
2021/07/20 12:20:15;;;;;;;6.50;3.03;;;;;;;;;;5054074;28;20021;-85
2021/07/20 12:22:44;;;;;;;6.05;2.65;;;;;;;;;;5052858;28;20048;-85
2021/07/20 12:25:09;;;;;;;5.95;2.95;;;;;;;;;;5052090;28;20037;-85
2021/07/20 12:27:36;;;;;;;8.40;3.75;;;;;;;;;;5054417;28;20368;-85
2021/07/20 12:30:02;;;;;;;8.63;3.72;;;;;;;;;;5039931;28;20068;-85
2021/07/20 12:32:30;;;;;;;7.20;3.50;;;;;;;;;;5061921;28;20512;-85
2021/07/20 12:34:57;;;;;;;6.55;2.78;;;;;;;;;;5053802;28;20112;-85
2021/07/20 12:37:23;;;;;;;9.43;3.20;;;;;;;;;;5053851;28;20047;-85
2021/07/20 12:39:48;;;;;;;7.45;3.65;;;;;;;;;;5041854;28;20029;-85
2021/07/20 12:42:15;;;;;;;6.68;2.83;;;;;;;;;;5039883;28;20021;-85
2021/07/20 12:44:40;;;;;;;9.23;3.83;;;;;;;;;;5051557;28;20107;-85
2021/07/20 12:47:07;;;;;;;12.05;4.78;;;;;;;;;;5050323;28;20520;-85
2021/07/20 12:49:33;;;;;;;7.28;3.55;;;;;;;;;;5052753;28;20028;-85
2021/07/20 12:51:59;;;;;;;6.45;3.28;;;;;;;;;;5051976;28;20025;-85
2021/07/20 12:54:33;;;;;;;7.20;3.55;;;;;;;;;;5051446;28;20305;-85
2021/07/20 12:56:59;;;;;;;6.53;3.30;;;;;;;;;;5052493;28;20040;-85
2021/07/20 12:59:26;;;;;;;11.40;3.78;;;;;;;;;;5051712;28;20017;-85
2021/07/20 13:01:52;;;;;;;5.85;2.95;;;;;;;;;;5051556;28;20074;-86
2021/07/20 13:04:19;;;;;;;10.20;3.97;;;;;;;;;;5047666;28;20098;-85
2021/07/20 13:06:44;;;;;;;9.15;2.65;;;;;;;;;;5053577;28;20526;-85
2021/07/20 13:09:10;;;;;;;5.22;2.63;;;;;;;;;;5051722;28;20167;-85
2021/07/20 13:11:37;;;;;;;7.22;2.88;;;;;;;;;;5050696;28;20023;-86
2021/07/20 13:14:02;;;;;;;7.13;3.15;;;;;;;;;;5052334;28;20028;-86
2021/07/20 13:16:30;;;;;;;5.32;2.80;;;;;;;;;;5051436;28;20649;-84
2021/07/20 13:18:55;;;;;;;6.82;2.72;;;;;;;;;;5052909;28;20033;-85
2021/07/20 13:21:20;;;;;;;7.68;3.58;;;;;;;;;;5052241;28;20031;-85
2021/07/20 13:23:46;;;;;;;8.65;3.97;;;;;;;;;;5052576;28;20021;-85
2021/07/20 13:26:12;;;;;;;6.57;3.05;;;;;;;;;;5050901;28;20103;-86
2021/07/20 13:28:38;;;;;;;8.30;3.58;;;;;;;;;;5052466;28;20028;-85
2021/07/20 13:31:05;;;;;;;7.88;3.55;;;;;;;;;;5052140;28;20094;-85
2021/07/20 13:33:31;;;;;;;7.05;2.92;;;;;;;;;;5052096;28;20029;-85
2021/07/20 13:35:57;;;;;;;5.45;3.10;;;;;;;;;;5055083;28;20585;-85
2021/07/20 13:38:23;;;;;;;6.15;2.90;;;;;;;;;;5052805;28;20021;-85
2021/07/20 13:40:50;;;;;;;7.25;3.17;;;;;;;;;;5051144;28;20025;-86
2021/07/20 13:43:15;;;;;;;6.85;2.90;;;;;;;;;;5052200;28;20107;-85
2021/07/20 13:45:41;;;;;;;6.53;3.03;;;;;;;;;;5052420;28;20532;-86
2021/07/20 13:48:08;;;;;;;8.25;3.13;;;;;;;;;;5050957;28;20158;-85
2021/07/20 13:50:34;;;;;;;7.05;3.10;;;;;;;;;;5052660;28;20021;-86
2021/07/20 13:53:01;;;;;;;6.47;2.85;;;;;;;;;;5050568;28;20559;-85
2021/07/20 13:55:30;;;;;;;5.45;3.08;;;;;;;;;;5052439;28;20511;-85
2021/07/20 13:58:01;;;;;;;6.13;3.05;;;;;;;;;;5049244;28;20017;-85
2021/07/20 14:00:27;;;;;;;5.97;2.55;;;;;;;;;;5043460;28;20021;-86
2021/07/20 14:02:55;;;;;;;6.30;3.33;;;;;;;;;;5050747;28;20021;-86
2021/07/20 14:05:20;;;;;;;8.35;3.70;;;;;;;;;;5051094;28;20731;-86
2021/07/20 14:07:45;;;;;;;7.82;3.33;;;;;;;;;;5052046;28;20094;-85
2021/07/20 14:10:11;;;;;;;8.63;3.70;;;;;;;;;;5050157;28;20016;-86
2021/07/20 14:12:36;;;;;;;8.85;3.67;;;;;;;;;;5051064;28;20055;-85
2021/07/20 14:15:03;;;;;;;8.45;3.50;;;;;;;;;;5048596;28;20054;-86
2021/07/20 14:17:29;;;;;;;7.13;2.90;;;;;;;;;;5049172;28;20033;-85
2021/07/20 14:19:54;;;;;;;8.07;3.40;;;;;;;;;;5049010;28;20028;-86
2021/07/20 14:22:23;;;;;;;9.23;3.60;;;;;;;;;;5048386;28;20064;-86
2021/07/20 14:24:49;;;;;;;7.97;3.63;;;;;;;;;;5050460;28;20017;-85
2021/07/20 14:27:14;;;;;;;8.35;3.40;;;;;;;;;;5049713;28;20393;-86
2021/07/20 14:29:41;;;;;;;7.65;3.63;;;;;;;;;;5049850;28;20060;-85
2021/07/20 14:32:09;;;;;;;8.15;3.35;;;;;;;;;;5051010;28;20017;-85
2021/07/20 14:34:44;;;;;;;8.38;3.83;;;;;;;;;;5050790;28;20422;-83
2021/07/20 14:37:29;;;;;;;7.70;3.58;;;;;;;;;;5052074;28;20025;-85
2021/07/20 14:39:55;;;;;;;7.18;3.47;;;;;;;;;;5050782;28;20017;-86